Brownton, Minnesota
Current Conditions -  °F | °C
As of 7:33 AM on Sunday 23 Nov 2014 (Local Time) from KHCD Reporting Station
Moderate Fog Moderate Fog  
Wind Chill: 35°   Ceiling: 100
Heat Index: 39°   Visibility: 0.25mi
Dew Point: 39°   Wind: 5mph
Humidity: 100%   Direction: 300°WNW
Pressure: 29.44"   Gusts: NA
Location:  44.73°N, 94.35°W
Report Text: KHCD 231333Z AUTO 30004KT 1/4SM FG BKN001 OVC080 04/04 A2944 RMK AO2 T00370038
Loading
Personal Weather Stations






























Interactive Weather Map New forecast layout! Learn more

10-Day Weather Forecast

Advertisements
Track Severe Weather on mobile